Mount Forest, Canada
Current Conditions -  °F | °C
As of 4:00 AM on Sunday 26 Oct 2014 (Local Time) from CYKF Reporting Station
Clear Clear  
Wind Chill: 39°   Ceiling: Unl
Heat Index: 46°   Visibility: 9mi
Dew Point: 36°   Wind: 20mph
Humidity: 66%   Direction: 290°WNW
Pressure: 29.66"   Gusts: 28mph
Location:  43.98°N, 80.73°W
Report Text: CYKF 260800Z AUTO 29017G24KT 9SM CLR 08/02 A2966 RMK SLP045
Loading
Personal Weather Stations






























Interactive Weather Map
Tropical Storm Tracking
New forecast layout! Learn more

10-Day Weather Forecast

Advertisements
Track Severe Weather on mobile